Idaho Falls, Idaho
Current Conditions -  °F | °C
As of 4:53 AM on Friday 19 Dec 2014 (Local Time) from KIDA Reporting Station
Broken Clouds Broken Clouds  
Wind Chill: -1°   Ceiling: 4100
Heat Index: -1°   Visibility: 9mi
Dew Point: -2°   Wind: 3mph
Humidity: 89%   Direction: 230°SW
Pressure: 30.12"   Gusts: NA
Location:  43.49°N, 112.04°W
Report Text: KIDA 191153Z AUTO 23003KT 9SM BKN041 M01/M02 A3012 RMK AO2 SLP224 60000 T10061022 10000 21022 55001
Loading
Personal Weather Stations






























Interactive Weather Map New forecast layout! Learn more

10-Day Weather Forecast

Advertisements
Track Severe Weather on mobile